Flight Track Log - Related Links

Times and Time Zones

All times are in EDT time to prevent confusion due to time zone crossing. See the GJS6254 flight status page for this flight to view local times or setup timezone preferences in your user account.

Time Position Orientation Groundspeed Altitude Reporting Facility
EDT Latitude Longitude Course Direction KTS MPH feet Rate Location/Type
Wed 08:40:46 PM 40.5667 -73.8167 146° Southeast 207 238 3,800  Level New York TRACON
Wed 08:42:54 PM 40.4797 -73.6961 133° Southeast 280 322 5,000 385 Climbing New York Center
Wed 08:43:53 PM 40.4378 -73.6233 127° Southeast 280 322 5,000  Level New York Center
Wed 08:44:53 PM 40.3747 -73.5525 139° Southeast 275 316 5,000  Level New York Center
Wed 08:45:51 PM 40.3200 -73.4906 139° Southeast 285 328 5,000 1,271 Level New York Center
Wed 08:46:00 PM 40.1923 -73.3468 146° Southeast  Level FlightAware Approximate
Wed 08:46:51 PM 40.2481 -73.4442 154° Southeast 279 321 7,500  Level New York Center
Wed 08:47:53 PM 40.1808 -73.4633 192° South 256 295 9,900 2,164 Climbing New York Center
Wed 08:48:53 PM 40.0947 -73.4925 195° South 282 325 11,900 1,537 Climbing New York Center
Wed 08:49:54 PM 40.0150 -73.5164 193° South 318 366 13,000 1,261 Climbing New York Center
Wed 08:50:52 PM 39.9081 -73.5528 195° South 346 398 14,400 1,487 Climbing New York Center
Wed 08:51:51 PM 39.8069 -73.5867 194° South 364 419 15,900 1,458 Climbing New York Center
Wed 08:53:16 PM 39.6817 -73.6853 211° Southwest 359 413 17,900 1,375 Climbing Washington Center
Wed 08:54:15 PM 39.6058 -73.7761 223° Southwest 374 430 19,200 1,412 Climbing Washington Center
Wed 08:55:15 PM 39.5283 -73.8750 225° Southwest 385 443 20,700 1,500 Climbing Washington Center
Wed 08:56:15 PM 39.4525 -73.9708 224° Southwest 385 443 22,200 1,438 Climbing Washington Center
Wed 08:57:16 PM 39.3703 -74.0614 220° Southwest 390 449 23,600 1,279 Climbing Washington Center
Wed 08:58:17 PM 39.2900 -74.1517 221° Southwest 390 449 24,800 1,140 Climbing Washington Center
Wed 08:59:17 PM 39.2078 -74.2417 220° Southwest 390 449 25,900 610 Climbing Washington Center
Wed 09:00:15 PM 39.1233 -74.3342 220° Southwest 390 449 26,000 51 Climbing Washington Center
Wed 09:01:15 PM 39.0328 -74.4319 220° Southwest 408 470 26,000  Level Washington Center
Wed 09:02:16 PM 38.9419 -74.5294 220° Southwest 419 482 26,000  Level Washington Center
Wed 09:03:16 PM 38.8508 -74.6267 220° Southwest 425 489 26,000  Level Washington Center
Wed 09:04:17 PM 38.7536 -74.7186 216° Southwest 430 495 26,000  Level Washington Center
Wed 09:05:15 PM 38.6519 -74.7994 212° Southwest 436 502 26,000  Level Washington Center
Wed 09:06:17 PM 38.5525 -74.8856 214° Southwest 441 507 26,000  Level Washington Center
Wed 09:07:15 PM 38.4508 -74.9661 212° Southwest 436 502 26,000  Level Washington Center
Wed 09:08:17 PM 38.3594 -75.0383 212° Southwest 436 502 26,000 -500 Level Washington Center
Wed 09:09:15 PM 38.2472 -75.1317 213° Southwest 436 502 25,000 -1,400 Descending Washington Center
Wed 09:10:17 PM 38.1475 -75.2142 213° Southwest 436 502 23,200 -1,815 Descending Washington Center
Wed 09:11:14 PM 38.0475 -75.2964 213° Southwest 436 502 21,400 -1,831 Descending Washington Center
Wed 09:12:15 PM 37.9478 -75.3783 213° Southwest 436 502 19,600 -1,794 Descending Washington Center
Wed 09:12:51 PM 37.8894 -75.4233 211° Southwest 425 489 18,500 -1,519 Descending Washington Center
Wed 09:13:34 PM 37.8164 -75.4814 212° Southwest 419 482 17,600 -1,624 Descending Washington Center
Wed 09:14:16 PM 37.7519 -75.5314 212° Southwest 431 496 16,200 -2,235 Descending Washington Center
Wed 09:15:16 PM 37.6600 -75.5969 209° Southwest 416 479 13,800 -2,281 Descending Washington Center
Wed 09:16:17 PM 37.5767 -75.6653 213° Southwest 385 443 11,600 -1,765 Descending Washington Center
Wed 09:17:15 PM 37.5036 -75.7175 210° Southwest 345 397 10,300 -1,424 Descending Washington Center
Wed 09:18:15 PM 37.4389 -75.7644 210° Southwest 302 348 8,800 -1,350 Descending Washington Center
Wed 09:19:15 PM 37.3742 -75.8114 210° Southwest 282 325 7,600 -1,240 Descending Washington Center
Wed 09:20:16 PM 37.3114 -75.8583 211° Southwest 269 310 6,300 -1,190 Descending Washington Center
Wed 09:21:16 PM 37.2489 -75.9050 211° Southwest 269 310 5,200 -1,059 Descending Washington Center
Wed 09:22:15 PM 37.1881 -75.9517 211° Southwest 269 310 4,200 -913 Descending Washington Center
Wed 09:23:34 PM 37.1150 -76.0061 211° Southwest 216 249 3,100 -809 Descending Washington Center
Wed 09:24:36 PM 37.0669 -76.0394 209° Southwest 185 213 2,300 -541 Descending Washington Center
Wed 09:25:36 PM 37.0208 -76.0783 214° Southwest 183 211 2,000 -200 Descending Washington Center
Wed 09:26:36 PM 36.9831 -76.1144 217° Southwest 163 188 1,900 -100 Descending Washington Center

Login

Don't have an account? Register now (free) for customized features, flight alerts, and more!